sensor_id;sensor_type;location;lat;lon;timestamp;P1;durP1;ratioP1;P2;durP2;ratioP2
38899;SDS011;24660;43.238;26.576;2022-10-12T00:00:41;8.10;;;7.60;;
38899;SDS011;24660;43.238;26.576;2022-10-12T00:03:07;8.00;;;7.50;;
38899;SDS011;24660;43.238;26.576;2022-10-12T00:05:33;7.85;;;7.35;;
38899;SDS011;24660;43.238;26.576;2022-10-12T00:07:58;7.65;;;7.15;;
38899;SDS011;24660;43.238;26.576;2022-10-12T00:10:23;8.00;;;7.50;;
38899;SDS011;24660;43.238;26.576;2022-10-12T00:12:49;7.90;;;7.40;;
38899;SDS011;24660;43.238;26.576;2022-10-12T00:15:14;8.05;;;7.55;;
38899;SDS011;24660;43.238;26.576;2022-10-12T00:17:40;8.40;;;7.90;;
38899;SDS011;24660;43.238;26.576;2022-10-12T00:20:06;8.38;;;7.88;;
38899;SDS011;24660;43.238;26.576;2022-10-12T00:22:35;8.15;;;7.65;;
38899;SDS011;24660;43.238;26.576;2022-10-12T00:25:00;8.25;;;7.75;;
38899;SDS011;24660;43.238;26.576;2022-10-12T00:27:25;8.50;;;8.00;;
38899;SDS011;24660;43.238;26.576;2022-10-12T00:29:51;8.07;;;7.57;;
38899;SDS011;24660;43.238;26.576;2022-10-12T00:32:16;7.97;;;7.47;;
38899;SDS011;24660;43.238;26.576;2022-10-12T00:34:42;7.88;;;7.38;;
38899;SDS011;24660;43.238;26.576;2022-10-12T00:37:08;7.25;;;6.80;;
38899;SDS011;24660;43.238;26.576;2022-10-12T00:39:33;7.60;;;7.10;;
38899;SDS011;24660;43.238;26.576;2022-10-12T00:41:59;7.40;;;6.90;;
38899;SDS011;24660;43.238;26.576;2022-10-12T00:47:12;7.05;;;6.65;;
38899;SDS011;24660;43.238;26.576;2022-10-12T00:49:39;6.18;;;5.78;;
38899;SDS011;24660;43.238;26.576;2022-10-12T00:52:09;6.50;;;6.10;;
38899;SDS011;24660;43.238;26.576;2022-10-12T00:54:39;6.25;;;5.85;;
38899;SDS011;24660;43.238;26.576;2022-10-12T00:57:07;6.72;;;6.32;;
38899;SDS011;24660;43.238;26.576;2022-10-12T00:59:35;5.70;;;5.38;;
38899;SDS011;24660;43.238;26.576;2022-10-12T01:02:06;6.55;;;6.15;;
38899;SDS011;24660;43.238;26.576;2022-10-12T01:04:32;6.30;;;5.90;;
38899;SDS011;24660;43.238;26.576;2022-10-12T01:06:58;5.90;;;5.50;;
38899;SDS011;24660;43.238;26.576;2022-10-12T01:09:25;6.30;;;5.90;;
38899;SDS011;24660;43.238;26.576;2022-10-12T01:11:51;6.10;;;5.70;;
38899;SDS011;24660;43.238;26.576;2022-10-12T01:14:17;6.07;;;5.68;;
38899;SDS011;24660;43.238;26.576;2022-10-12T01:19:28;6.03;;;5.63;;
38899;SDS011;24660;43.238;26.576;2022-10-12T01:22:14;5.20;;;4.90;;
38899;SDS011;24660;43.238;26.576;2022-10-12T01:35:13;6.95;;;6.55;;
38899;SDS011;24660;43.238;26.576;2022-10-12T01:37:47;6.03;;;5.63;;
38899;SDS011;24660;43.238;26.576;2022-10-12T01:40:33;6.25;;;5.85;;
38899;SDS011;24660;43.238;26.576;2022-10-12T01:43:06;5.95;;;5.55;;
38899;SDS011;24660;43.238;26.576;2022-10-12T01:45:32;6.50;;;6.10;;
38899;SDS011;24660;43.238;26.576;2022-10-12T01:47:58;5.72;;;5.40;;
38899;SDS011;24660;43.238;26.576;2022-10-12T01:50:27;6.18;;;5.78;;
38899;SDS011;24660;43.238;26.576;2022-10-12T01:53:07;6.00;;;5.60;;
38899;SDS011;24660;43.238;26.576;2022-10-12T01:55:48;5.85;;;5.47;;
38899;SDS011;24660;43.238;26.576;2022-10-12T01:58:32;6.30;;;5.90;;
38899;SDS011;24660;43.238;26.576;2022-10-12T02:01:11;6.03;;;5.63;;
38899;SDS011;24660;43.238;26.576;2022-10-12T02:06:19;6.10;;;5.70;;
38899;SDS011;24660;43.238;26.576;2022-10-12T02:11:19;6.60;;;6.20;;
38899;SDS011;24660;43.238;26.576;2022-10-12T02:13:50;6.60;;;6.20;;
38899;SDS011;24660;43.238;26.576;2022-10-12T02:16:21;6.72;;;6.32;;
38899;SDS011;24660;43.238;26.576;2022-10-12T02:18:52;6.28;;;5.88;;
38899;SDS011;24660;43.238;26.576;2022-10-12T02:21:21;6.30;;;5.90;;
38899;SDS011;24660;43.238;26.576;2022-10-12T02:23:51;5.93;;;5.53;;
38899;SDS011;24660;43.238;26.576;2022-10-12T02:26:20;6.25;;;5.85;;
38899;SDS011;24660;43.238;26.576;2022-10-12T02:28:46;6.10;;;5.70;;
38899;SDS011;24660;43.238;26.576;2022-10-12T02:31:18;5.95;;;5.55;;
38899;SDS011;24660;43.238;26.576;2022-10-12T02:36:38;5.68;;;5.38;;
38899;SDS011;24660;43.238;26.576;2022-10-12T02:39:13;5.90;;;5.50;;
38899;SDS011;24660;43.238;26.576;2022-10-12T02:41:45;5.55;;;5.25;;
38899;SDS011;24660;43.238;26.576;2022-10-12T02:44:21;5.65;;;5.35;;
38899;SDS011;24660;43.238;26.576;2022-10-12T02:46:50;5.50;;;5.20;;
38899;SDS011;24660;43.238;26.576;2022-10-12T02:49:18;5.10;;;4.80;;
38899;SDS011;24660;43.238;26.576;2022-10-12T02:51:47;4.53;;;4.22;;
38899;SDS011;24660;43.238;26.576;2022-10-12T02:54:13;4.70;;;4.40;;
38899;SDS011;24660;43.238;26.576;2022-10-12T02:56:43;4.43;;;4.13;;
38899;SDS011;24660;43.238;26.576;2022-10-12T02:59:11;4.60;;;4.30;;
38899;SDS011;24660;43.238;26.576;2022-10-12T03:01:38;4.65;;;4.35;;
38899;SDS011;24660;43.238;26.576;2022-10-12T03:04:03;4.68;;;4.38;;
38899;SDS011;24660;43.238;26.576;2022-10-12T03:06:29;4.80;;;4.50;;
38899;SDS011;24660;43.238;26.576;2022-10-12T03:08:54;5.22;;;4.93;;
38899;SDS011;24660;43.238;26.576;2022-10-12T03:11:21;5.38;;;5.07;;
38899;SDS011;24660;43.238;26.576;2022-10-12T03:13:51;5.40;;;5.10;;
38899;SDS011;24660;43.238;26.576;2022-10-12T03:18:45;5.33;;;5.03;;
38899;SDS011;24660;43.238;26.576;2022-10-12T03:21:11;4.78;;;4.47;;
38899;SDS011;24660;43.238;26.576;2022-10-12T03:23:37;5.00;;;4.70;;
38899;SDS011;24660;43.238;26.576;2022-10-12T03:26:02;5.50;;;5.20;;
38899;SDS011;24660;43.238;26.576;2022-10-12T03:28:28;5.50;;;5.20;;
38899;SDS011;24660;43.238;26.576;2022-10-12T03:30:54;5.15;;;4.85;;
38899;SDS011;24660;43.238;26.576;2022-10-12T03:33:20;5.20;;;4.90;;
38899;SDS011;24660;43.238;26.576;2022-10-12T03:35:45;5.13;;;4.82;;
38899;SDS011;24660;43.238;26.576;2022-10-12T03:38:12;4.78;;;4.47;;
38899;SDS011;24660;43.238;26.576;2022-10-12T03:40:38;4.10;;;3.90;;
38899;SDS011;24660;43.238;26.576;2022-10-12T03:43:04;4.20;;;4.00;;
38899;SDS011;24660;43.238;26.576;2022-10-12T03:45:29;4.07;;;3.88;;
38899;SDS011;24660;43.238;26.576;2022-10-12T03:47:55;4.03;;;3.83;;
38899;SDS011;24660;43.238;26.576;2022-10-12T03:50:20;3.70;;;3.50;;
38899;SDS011;24660;43.238;26.576;2022-10-12T03:52:46;4.00;;;3.80;;
38899;SDS011;24660;43.238;26.576;2022-10-12T03:55:11;3.90;;;3.70;;
38899;SDS011;24660;43.238;26.576;2022-10-12T03:57:37;3.70;;;3.50;;
38899;SDS011;24660;43.238;26.576;2022-10-12T04:00:03;3.70;;;3.50;;
38899;SDS011;24660;43.238;26.576;2022-10-12T04:02:29;4.30;;;4.10;;
38899;SDS011;24660;43.238;26.576;2022-10-12T04:04:54;4.50;;;4.20;;
38899;SDS011;24660;43.238;26.576;2022-10-12T04:07:20;4.55;;;4.25;;
38899;SDS011;24660;43.238;26.576;2022-10-12T04:09:45;4.30;;;4.10;;
38899;SDS011;24660;43.238;26.576;2022-10-12T04:12:11;4.80;;;4.50;;
38899;SDS011;24660;43.238;26.576;2022-10-12T04:14:37;4.43;;;4.15;;
38899;SDS011;24660;43.238;26.576;2022-10-12T04:17:02;4.85;;;4.55;;
38899;SDS011;24660;43.238;26.576;2022-10-12T04:19:28;4.95;;;4.65;;
38899;SDS011;24660;43.238;26.576;2022-10-12T04:21:54;5.10;;;4.80;;
38899;SDS011;24660;43.238;26.576;2022-10-12T04:24:19;5.10;;;4.80;;
38899;SDS011;24660;43.238;26.576;2022-10-12T04:26:45;5.10;;;4.80;;
38899;SDS011;24660;43.238;26.576;2022-10-12T04:29:10;5.20;;;4.90;;
38899;SDS011;24660;43.238;26.576;2022-10-12T04:31:38;5.05;;;4.75;;
38899;SDS011;24660;43.238;26.576;2022-10-12T04:34:07;5.00;;;4.70;;
38899;SDS011;24660;43.238;26.576;2022-10-12T04:36:33;5.20;;;4.90;;
38899;SDS011;24660;43.238;26.576;2022-10-12T04:38:59;4.80;;;4.50;;
38899;SDS011;24660;43.238;26.576;2022-10-12T04:41:25;4.95;;;4.65;;
38899;SDS011;24660;43.238;26.576;2022-10-12T04:43:52;5.00;;;4.70;;
38899;SDS011;24660;43.238;26.576;2022-10-12T04:46:17;4.65;;;4.35;;
38899;SDS011;24660;43.238;26.576;2022-10-12T04:48:43;4.78;;;4.47;;
38899;SDS011;24660;43.238;26.576;2022-10-12T04:51:08;4.60;;;4.30;;
38899;SDS011;24660;43.238;26.576;2022-10-12T04:53:36;5.05;;;4.75;;
38899;SDS011;24660;43.238;26.576;2022-10-12T04:56:02;4.80;;;4.50;;
38899;SDS011;24660;43.238;26.576;2022-10-12T04:58:29;5.10;;;4.80;;
38899;SDS011;24660;43.238;26.576;2022-10-12T05:01:00;4.50;;;4.20;;
38899;SDS011;24660;43.238;26.576;2022-10-12T05:03:28;4.80;;;4.50;;
38899;SDS011;24660;43.238;26.576;2022-10-12T05:05:57;4.82;;;4.53;;
38899;SDS011;24660;43.238;26.576;2022-10-12T05:08:22;4.80;;;4.50;;
38899;SDS011;24660;43.238;26.576;2022-10-12T05:10:48;4.60;;;4.30;;
38899;SDS011;24660;43.238;26.576;2022-10-12T05:13:13;4.65;;;4.35;;
38899;SDS011;24660;43.238;26.576;2022-10-12T05:15:45;4.72;;;4.43;;
38899;SDS011;24660;43.238;26.576;2022-10-12T05:18:13;4.18;;;3.97;;
38899;SDS011;24660;43.238;26.576;2022-10-12T05:20:39;5.10;;;4.80;;
38899;SDS011;24660;43.238;26.576;2022-10-12T05:23:04;5.10;;;4.80;;
38899;SDS011;24660;43.238;26.576;2022-10-12T05:25:30;5.10;;;4.80;;
38899;SDS011;24660;43.238;26.576;2022-10-12T05:27:56;5.03;;;4.72;;
38899;SDS011;24660;43.238;26.576;2022-10-12T05:30:22;4.95;;;4.65;;
38899;SDS011;24660;43.238;26.576;2022-10-12T05:32:48;4.70;;;4.40;;
38899;SDS011;24660;43.238;26.576;2022-10-12T05:35:14;5.10;;;4.80;;
38899;SDS011;24660;43.238;26.576;2022-10-12T05:37:40;5.07;;;4.78;;
38899;SDS011;24660;43.238;26.576;2022-10-12T05:40:05;4.78;;;4.47;;
38899;SDS011;24660;43.238;26.576;2022-10-12T05:42:34;4.63;;;4.32;;
38899;SDS011;24660;43.238;26.576;2022-10-12T05:45:00;4.50;;;4.20;;
38899;SDS011;24660;43.238;26.576;2022-10-12T05:47:26;4.68;;;4.38;;
38899;SDS011;24660;43.238;26.576;2022-10-12T05:49:51;4.70;;;4.40;;
38899;SDS011;24660;43.238;26.576;2022-10-12T05:52:17;4.68;;;4.38;;
38899;SDS011;24660;43.238;26.576;2022-10-12T05:54:46;4.78;;;4.47;;
38899;SDS011;24660;43.238;26.576;2022-10-12T05:57:11;4.70;;;4.40;;
38899;SDS011;24660;43.238;26.576;2022-10-12T05:59:39;4.68;;;4.38;;
38899;SDS011;24660;43.238;26.576;2022-10-12T06:02:05;4.47;;;4.20;;
38899;SDS011;24660;43.238;26.576;2022-10-12T06:04:30;4.70;;;4.40;;
38899;SDS011;24660;43.238;26.576;2022-10-12T06:06:56;5.07;;;4.78;;
38899;SDS011;24660;43.238;26.576;2022-10-12T06:09:21;5.57;;;5.28;;
38899;SDS011;24660;43.238;26.576;2022-10-12T06:11:47;5.82;;;5.47;;
38899;SDS011;24660;43.238;26.576;2022-10-12T06:14:13;5.50;;;5.20;;
38899;SDS011;24660;43.238;26.576;2022-10-12T06:16:39;5.45;;;5.15;;
38899;SDS011;24660;43.238;26.576;2022-10-12T06:19:04;5.40;;;5.10;;
38899;SDS011;24660;43.238;26.576;2022-10-12T06:21:30;5.95;;;5.55;;
38899;SDS011;24660;43.238;26.576;2022-10-12T06:23:55;6.03;;;5.63;;
38899;SDS011;24660;43.238;26.576;2022-10-12T06:26:21;6.05;;;5.65;;
38899;SDS011;24660;43.238;26.576;2022-10-12T06:28:47;6.40;;;6.00;;
38899;SDS011;24660;43.238;26.576;2022-10-12T06:31:12;6.70;;;6.30;;
38899;SDS011;24660;43.238;26.576;2022-10-12T06:33:39;6.95;;;6.55;;
38899;SDS011;24660;43.238;26.576;2022-10-12T06:36:13;6.68;;;6.28;;
38899;SDS011;24660;43.238;26.576;2022-10-12T06:38:39;6.25;;;5.85;;
38899;SDS011;24660;43.238;26.576;2022-10-12T06:41:04;7.15;;;6.75;;
38899;SDS011;24660;43.238;26.576;2022-10-12T06:43:30;7.60;;;7.10;;
38899;SDS011;24660;43.238;26.576;2022-10-12T06:45:59;8.82;;;8.23;;
38899;SDS011;24660;43.238;26.576;2022-10-12T06:48:26;9.18;;;8.57;;
38899;SDS011;24660;43.238;26.576;2022-10-12T06:50:51;10.18;;;9.48;;
38899;SDS011;24660;43.238;26.576;2022-10-12T06:53:17;9.40;;;8.80;;
38899;SDS011;24660;43.238;26.576;2022-10-12T06:55:43;10.80;;;10.10;;
38899;SDS011;24660;43.238;26.576;2022-10-12T06:58:08;10.77;;;10.07;;
38899;SDS011;24660;43.238;26.576;2022-10-12T07:00:34;10.98;;;10.27;;
38899;SDS011;24660;43.238;26.576;2022-10-12T07:03:00;11.30;;;10.50;;
38899;SDS011;24660;43.238;26.576;2022-10-12T07:05:25;11.35;;;10.55;;
38899;SDS011;24660;43.238;26.576;2022-10-12T07:07:51;11.75;;;10.95;;
38899;SDS011;24660;43.238;26.576;2022-10-12T07:10:16;12.00;;;11.20;;
38899;SDS011;24660;43.238;26.576;2022-10-12T07:12:42;12.80;;;11.90;;
38899;SDS011;24660;43.238;26.576;2022-10-12T07:15:07;12.73;;;11.82;;
38899;SDS011;24660;43.238;26.576;2022-10-12T07:17:33;13.00;;;12.10;;
38899;SDS011;24660;43.238;26.576;2022-10-12T07:19:59;13.07;;;12.18;;
38899;SDS011;24660;43.238;26.576;2022-10-12T07:22:25;13.55;;;12.55;;
38899;SDS011;24660;43.238;26.576;2022-10-12T07:24:50;13.35;;;12.35;;
38899;SDS011;24660;43.238;26.576;2022-10-12T07:27:16;13.38;;;12.38;;
38899;SDS011;24660;43.238;26.576;2022-10-12T07:29:41;13.20;;;12.20;;
38899;SDS011;24660;43.238;26.576;2022-10-12T07:32:07;13.20;;;12.20;;
38899;SDS011;24660;43.238;26.576;2022-10-12T07:34:33;13.75;;;12.75;;
38899;SDS011;24660;43.238;26.576;2022-10-12T07:36:59;13.07;;;12.18;;
38899;SDS011;24660;43.238;26.576;2022-10-12T07:39:28;12.43;;;11.52;;
38899;SDS011;24660;43.238;26.576;2022-10-12T07:41:53;13.00;;;12.10;;
38899;SDS011;24660;43.238;26.576;2022-10-12T07:44:20;12.60;;;11.70;;
38899;SDS011;24660;43.238;26.576;2022-10-12T07:46:46;12.25;;;11.35;;
38899;SDS011;24660;43.238;26.576;2022-10-12T07:49:13;12.65;;;11.75;;
38899;SDS011;24660;43.238;26.576;2022-10-12T07:51:39;12.88;;;11.98;;
38899;SDS011;24660;43.238;26.576;2022-10-12T07:54:05;13.93;;;12.93;;
38899;SDS011;24660;43.238;26.576;2022-10-12T07:56:31;15.68;;;14.48;;
38899;SDS011;24660;43.238;26.576;2022-10-12T07:58:57;15.32;;;14.18;;
38899;SDS011;24660;43.238;26.576;2022-10-12T08:01:25;15.13;;;14.02;;
38899;SDS011;24660;43.238;26.576;2022-10-12T08:03:54;16.05;;;14.85;;
38899;SDS011;24660;43.238;26.576;2022-10-12T08:08:49;16.40;;;15.10;;
38899;SDS011;24660;43.238;26.576;2022-10-12T08:11:15;17.33;;;15.93;;
38899;SDS011;24660;43.238;26.576;2022-10-12T08:13:41;16.88;;;15.48;;
38899;SDS011;24660;43.238;26.576;2022-10-12T08:16:08;17.70;;;16.20;;
38899;SDS011;24660;43.238;26.576;2022-10-12T08:18:42;17.60;;;16.10;;
38899;SDS011;24660;43.238;26.576;2022-10-12T08:21:09;18.58;;;16.98;;
38899;SDS011;24660;43.238;26.576;2022-10-12T08:23:36;18.23;;;16.70;;
38899;SDS011;24660;43.238;26.576;2022-10-12T08:26:02;18.20;;;16.63;;
38899;SDS011;24660;43.238;26.576;2022-10-12T08:28:29;17.63;;;16.13;;
38899;SDS011;24660;43.238;26.576;2022-10-12T08:30:55;17.75;;;16.25;;
38899;SDS011;24660;43.238;26.576;2022-10-12T08:33:20;18.65;;;17.05;;
38899;SDS011;24660;43.238;26.576;2022-10-12T08:35:52;18.05;;;16.55;;
38899;SDS011;24660;43.238;26.576;2022-10-12T08:38:17;19.40;;;17.80;;
38899;SDS011;24660;43.238;26.576;2022-10-12T08:40:46;18.70;;;17.10;;
38899;SDS011;24660;43.238;26.576;2022-10-12T08:50:48;19.60;;;17.90;;
38899;SDS011;24660;43.238;26.576;2022-10-12T08:53:31;19.02;;;17.33;;
38899;SDS011;24660;43.238;26.576;2022-10-12T08:56:07;19.77;;;18.08;;
38899;SDS011;24660;43.238;26.576;2022-10-12T08:58:35;18.70;;;17.10;;
38899;SDS011;24660;43.238;26.576;2022-10-12T09:06:39;20.25;;;18.45;;
38899;SDS011;24660;43.238;26.576;2022-10-12T09:14:31;19.65;;;17.85;;
38899;SDS011;24660;43.238;26.576;2022-10-12T09:19:29;21.20;;;19.30;;
38899;SDS011;24660;43.238;26.576;2022-10-12T09:22:00;20.90;;;19.00;;
38899;SDS011;24660;43.238;26.576;2022-10-12T09:24:28;21.58;;;19.63;;
38899;SDS011;24660;43.238;26.576;2022-10-12T09:26:59;21.17;;;19.27;;
38899;SDS011;24660;43.238;26.576;2022-10-12T09:29:47;21.48;;;19.58;;
38899;SDS011;24660;43.238;26.576;2022-10-12T09:32:25;21.85;;;20.05;;
38899;SDS011;24660;43.238;26.576;2022-10-12T09:35:11;22.10;;;20.30;;
38899;SDS011;24660;43.238;26.576;2022-10-12T09:37:37;21.20;;;19.40;;
38899;SDS011;24660;43.238;26.576;2022-10-12T09:40:03;22.42;;;20.52;;
38899;SDS011;24660;43.238;26.576;2022-10-12T09:42:30;23.20;;;21.20;;
38899;SDS011;24660;43.238;26.576;2022-10-12T09:45:01;23.52;;;21.45;;
38899;SDS011;24660;43.238;26.576;2022-10-12T09:47:40;24.00;;;21.90;;
38899;SDS011;24660;43.238;26.576;2022-10-12T09:50:06;24.27;;;22.20;;
38899;SDS011;24660;43.238;26.576;2022-10-12T09:55:02;21.35;;;19.55;;
38899;SDS011;24660;43.238;26.576;2022-10-12T09:57:30;20.95;;;19.15;;
38899;SDS011;24660;43.238;26.576;2022-10-12T10:00:00;22.05;;;20.25;;
38899;SDS011;24660;43.238;26.576;2022-10-12T10:02:33;22.88;;;20.88;;
38899;SDS011;24660;43.238;26.576;2022-10-12T10:05:25;22.88;;;20.88;;
38899;SDS011;24660;43.238;26.576;2022-10-12T10:08:11;22.33;;;20.43;;
38899;SDS011;24660;43.238;26.576;2022-10-12T10:13:37;21.75;;;19.95;;
38899;SDS011;24660;43.238;26.576;2022-10-12T10:16:08;21.23;;;19.42;;
38899;SDS011;24660;43.238;26.576;2022-10-12T10:18:39;20.83;;;19.02;;
38899;SDS011;24660;43.238;26.576;2022-10-12T10:21:08;21.00;;;19.20;;
38899;SDS011;24660;43.238;26.576;2022-10-12T10:23:53;21.60;;;19.80;;
38899;SDS011;24660;43.238;26.576;2022-10-12T10:26:22;21.73;;;19.83;;
38899;SDS011;24660;43.238;26.576;2022-10-12T10:28:49;21.38;;;19.55;;
38899;SDS011;24660;43.238;26.576;2022-10-12T10:31:23;21.05;;;19.25;;
38899;SDS011;24660;43.238;26.576;2022-10-12T10:36:39;20.48;;;18.73;;
38899;SDS011;24660;43.238;26.576;2022-10-12T10:39:15;20.33;;;18.63;;
38899;SDS011;24660;43.238;26.576;2022-10-12T10:41:45;20.60;;;18.80;;
38899;SDS011;24660;43.238;26.576;2022-10-12T10:47:08;21.05;;;19.25;;
38899;SDS011;24660;43.238;26.576;2022-10-12T10:49:37;20.73;;;18.92;;
38899;SDS011;24660;43.238;26.576;2022-10-12T10:57:30;21.65;;;19.85;;
38899;SDS011;24660;43.238;26.576;2022-10-12T11:00:02;21.70;;;19.90;;
38899;SDS011;24660;43.238;26.576;2022-10-12T11:02:32;21.08;;;19.27;;
38899;SDS011;24660;43.238;26.576;2022-10-12T11:05:06;21.08;;;19.27;;
38899;SDS011;24660;43.238;26.576;2022-10-12T11:10:31;20.98;;;19.17;;
38899;SDS011;24660;43.238;26.576;2022-10-12T11:13:11;21.33;;;19.42;;
38899;SDS011;24660;43.238;26.576;2022-10-12T11:21:06;21.13;;;19.33;;
38899;SDS011;24660;43.238;26.576;2022-10-12T11:23:43;21.55;;;19.75;;
38899;SDS011;24660;43.238;26.576;2022-10-12T11:26:17;22.15;;;20.25;;
38899;SDS011;24660;43.238;26.576;2022-10-12T11:28:52;22.08;;;20.17;;
38899;SDS011;24660;43.238;26.576;2022-10-12T11:31:23;21.15;;;19.35;;
38899;SDS011;24660;43.238;26.576;2022-10-12T11:33:54;21.27;;;19.48;;
38899;SDS011;24660;43.238;26.576;2022-10-12T11:36:23;21.13;;;19.33;;
38899;SDS011;24660;43.238;26.576;2022-10-12T11:38:56;20.92;;;19.13;;
38899;SDS011;24660;43.238;26.576;2022-10-12T11:41:34;21.38;;;19.48;;
38899;SDS011;24660;43.238;26.576;2022-10-12T11:44:20;21.30;;;19.45;;
38899;SDS011;24660;43.238;26.576;2022-10-12T11:47:15;21.35;;;19.52;;
38899;SDS011;24660;43.238;26.576;2022-10-12T11:52:55;22.38;;;20.48;;
38899;SDS011;24660;43.238;26.576;2022-10-12T11:55:34;22.13;;;20.23;;
38899;SDS011;24660;43.238;26.576;2022-10-12T11:58:08;22.25;;;20.35;;
38899;SDS011;24660;43.238;26.576;2022-10-12T12:00:42;22.77;;;20.77;;
38899;SDS011;24660;43.238;26.576;2022-10-12T12:03:28;21.25;;;19.45;;
38899;SDS011;24660;43.238;26.576;2022-10-12T12:05:59;21.60;;;19.70;;
38899;SDS011;24660;43.238;26.576;2022-10-12T12:08:57;21.65;;;19.75;;
38899;SDS011;24660;43.238;26.576;2022-10-12T12:11:42;21.65;;;19.75;;
38899;SDS011;24660;43.238;26.576;2022-10-12T12:19:51;22.00;;;20.10;;
38899;SDS011;24660;43.238;26.576;2022-10-12T12:22:26;22.70;;;20.70;;
38899;SDS011;24660;43.238;26.576;2022-10-12T12:27:34;23.10;;;21.10;;
38899;SDS011;24660;43.238;26.576;2022-10-12T12:32:54;20.70;;;19.00;;
38899;SDS011;24660;43.238;26.576;2022-10-12T12:38:02;21.80;;;20.00;;
38899;SDS011;24660;43.238;26.576;2022-10-12T12:43:34;22.08;;;20.10;;
38899;SDS011;24660;43.238;26.576;2022-10-12T12:49:21;22.38;;;20.45;;
38899;SDS011;24660;43.238;26.576;2022-10-12T12:51:16;22.45;;;20.55;;
38899;SDS011;24660;43.238;26.576;2022-10-12T12:53:47;23.20;;;21.20;;
38899;SDS011;24660;43.238;26.576;2022-10-12T12:56:30;22.67;;;20.67;;
38899;SDS011;24660;43.238;26.576;2022-10-12T13:21:22;21.45;;;19.55;;
38899;SDS011;24660;43.238;26.576;2022-10-12T13:23:51;22.38;;;20.42;;
38899;SDS011;24660;43.238;26.576;2022-10-12T13:26:22;22.27;;;20.35;;
38899;SDS011;24660;43.238;26.576;2022-10-12T13:28:51;22.92;;;20.92;;
38899;SDS011;24660;43.238;26.576;2022-10-12T13:31:24;22.33;;;20.35;;
38899;SDS011;24660;43.238;26.576;2022-10-12T13:36:48;21.48;;;19.58;;
38899;SDS011;24660;43.238;26.576;2022-10-12T13:39:18;21.30;;;19.50;;
38899;SDS011;24660;43.238;26.576;2022-10-12T13:41:46;21.63;;;19.73;;
38899;SDS011;24660;43.238;26.576;2022-10-12T13:44:18;21.85;;;19.95;;
38899;SDS011;24660;43.238;26.576;2022-10-12T13:46:47;21.50;;;19.70;;
38899;SDS011;24660;43.238;26.576;2022-10-12T13:49:25;20.92;;;19.13;;
38899;SDS011;24660;43.238;26.576;2022-10-12T13:51:53;21.17;;;19.38;;
38899;SDS011;24660;43.238;26.576;2022-10-12T13:56:46;22.08;;;20.20;;
38899;SDS011;24660;43.238;26.576;2022-10-12T13:59:17;22.48;;;20.58;;
38899;SDS011;24660;43.238;26.576;2022-10-12T14:01:48;22.73;;;20.83;;
38899;SDS011;24660;43.238;26.576;2022-10-12T14:04:17;22.58;;;20.67;;
38899;SDS011;24660;43.238;26.576;2022-10-12T14:06:45;22.80;;;20.90;;
38899;SDS011;24660;43.238;26.576;2022-10-12T14:09:21;22.25;;;20.45;;
38899;SDS011;24660;43.238;26.576;2022-10-12T14:11:48;22.13;;;20.33;;
38899;SDS011;24660;43.238;26.576;2022-10-12T14:14:17;22.17;;;20.38;;
38899;SDS011;24660;43.238;26.576;2022-10-12T14:16:49;21.50;;;19.75;;
38899;SDS011;24660;43.238;26.576;2022-10-12T14:19:17;20.42;;;18.73;;
38899;SDS011;24660;43.238;26.576;2022-10-12T14:22:02;21.80;;;20.00;;
38899;SDS011;24660;43.238;26.576;2022-10-12T14:24:28;21.73;;;19.92;;
38899;SDS011;24660;43.238;26.576;2022-10-12T14:26:56;21.60;;;19.80;;
38899;SDS011;24660;43.238;26.576;2022-10-12T14:29:27;21.70;;;19.90;;
38899;SDS011;24660;43.238;26.576;2022-10-12T14:31:55;21.88;;;20.08;;
38899;SDS011;24660;43.238;26.576;2022-10-12T14:34:23;22.15;;;20.35;;
38899;SDS011;24660;43.238;26.576;2022-10-12T14:37:00;22.30;;;20.40;;
38899;SDS011;24660;43.238;26.576;2022-10-12T14:39:43;22.08;;;20.23;;
38899;SDS011;24660;43.238;26.576;2022-10-12T14:42:18;21.42;;;19.63;;
38899;SDS011;24660;43.238;26.576;2022-10-12T14:44:53;20.80;;;19.10;;
38899;SDS011;24660;43.238;26.576;2022-10-12T14:47:21;21.10;;;19.30;;
38899;SDS011;24660;43.238;26.576;2022-10-12T14:49:49;21.33;;;19.52;;
38899;SDS011;24660;43.238;26.576;2022-10-12T14:54:43;21.30;;;19.50;;
38899;SDS011;24660;43.238;26.576;2022-10-12T14:57:11;20.95;;;19.25;;
38899;SDS011;24660;43.238;26.576;2022-10-12T14:59:38;21.42;;;19.73;;
38899;SDS011;24660;43.238;26.576;2022-10-12T15:02:09;21.48;;;19.70;;
38899;SDS011;24660;43.238;26.576;2022-10-12T15:04:39;21.02;;;19.23;;
38899;SDS011;24660;43.238;26.576;2022-10-12T15:09:45;21.60;;;19.80;;
38899;SDS011;24660;43.238;26.576;2022-10-12T15:12:13;21.38;;;19.58;;
38899;SDS011;24660;43.238;26.576;2022-10-12T15:14:41;21.13;;;19.25;;
38899;SDS011;24660;43.238;26.576;2022-10-12T15:17:11;21.30;;;19.50;;
38899;SDS011;24660;43.238;26.576;2022-10-12T15:19:37;21.48;;;19.67;;
38899;SDS011;24660;43.238;26.576;2022-10-12T15:22:04;21.08;;;19.27;;
38899;SDS011;24660;43.238;26.576;2022-10-12T15:24:29;21.45;;;19.65;;
38899;SDS011;24660;43.238;26.576;2022-10-12T15:26:54;21.15;;;19.35;;
38899;SDS011;24660;43.238;26.576;2022-10-12T15:29:20;21.73;;;19.85;;
38899;SDS011;24660;43.238;26.576;2022-10-12T15:31:45;21.13;;;19.33;;
38899;SDS011;24660;43.238;26.576;2022-10-12T15:34:11;21.67;;;19.88;;
38899;SDS011;24660;43.238;26.576;2022-10-12T15:36:38;20.98;;;19.25;;
38899;SDS011;24660;43.238;26.576;2022-10-12T15:39:04;21.42;;;19.63;;
38899;SDS011;24660;43.238;26.576;2022-10-12T15:41:33;21.83;;;20.13;;
38899;SDS011;24660;43.238;26.576;2022-10-12T15:43:58;21.27;;;19.48;;
38899;SDS011;24660;43.238;26.576;2022-10-12T15:46:24;20.88;;;19.17;;
38899;SDS011;24660;43.238;26.576;2022-10-12T15:48:51;20.35;;;18.75;;
38899;SDS011;24660;43.238;26.576;2022-10-12T15:51:18;21.45;;;19.65;;
38899;SDS011;24660;43.238;26.576;2022-10-12T15:53:49;21.13;;;19.33;;
38899;SDS011;24660;43.238;26.576;2022-10-12T15:56:16;21.15;;;19.35;;
38899;SDS011;24660;43.238;26.576;2022-10-12T15:58:43;20.90;;;19.20;;
38899;SDS011;24660;43.238;26.576;2022-10-12T16:01:10;21.50;;;19.70;;
38899;SDS011;24660;43.238;26.576;2022-10-12T16:03:37;21.08;;;19.30;;
38899;SDS011;24660;43.238;26.576;2022-10-12T16:06:02;21.00;;;19.30;;
38899;SDS011;24660;43.238;26.576;2022-10-12T16:08:28;20.60;;;18.90;;
38899;SDS011;24660;43.238;26.576;2022-10-12T16:10:56;20.40;;;18.70;;
38899;SDS011;24660;43.238;26.576;2022-10-12T16:13:22;20.67;;;18.98;;
38899;SDS011;24660;43.238;26.576;2022-10-12T16:15:48;20.35;;;18.65;;
38899;SDS011;24660;43.238;26.576;2022-10-12T16:18:13;19.80;;;18.20;;
38899;SDS011;24660;43.238;26.576;2022-10-12T16:20:40;20.50;;;18.80;;
38899;SDS011;24660;43.238;26.576;2022-10-12T16:23:07;20.55;;;18.85;;
38899;SDS011;24660;43.238;26.576;2022-10-12T16:25:37;20.20;;;18.50;;
38899;SDS011;24660;43.238;26.576;2022-10-12T16:28:02;20.60;;;18.90;;
38899;SDS011;24660;43.238;26.576;2022-10-12T16:30:28;20.98;;;19.17;;
38899;SDS011;24660;43.238;26.576;2022-10-12T16:32:54;20.40;;;18.73;;
38899;SDS011;24660;43.238;26.576;2022-10-12T16:35:19;20.85;;;19.15;;
38899;SDS011;24660;43.238;26.576;2022-10-12T16:37:45;20.23;;;18.52;;
38899;SDS011;24660;43.238;26.576;2022-10-12T16:40:11;20.17;;;18.58;;